createdAt,value
2023-04-15T00:01:02.697Z,5.90
2023-04-15T00:03:31.543Z,5.83
2023-04-15T00:06:00.924Z,5.47
2023-04-15T00:08:30.323Z,6.00
2023-04-15T00:11:02.968Z,6.97
2023-04-15T00:13:31.630Z,6.80
2023-04-15T00:16:00.243Z,7.07
2023-04-15T00:18:29.615Z,7.47
2023-04-15T00:20:58.108Z,8.10
2023-04-15T00:23:26.717Z,6.67
2023-04-15T00:25:55.722Z,7.17
2023-04-15T00:28:24.577Z,7.27
2023-04-15T00:30:53.209Z,8.23
2023-04-15T00:33:21.995Z,8.13
2023-04-15T00:35:51.412Z,7.73
2023-04-15T00:38:19.694Z,7.27
2023-04-15T00:40:48.227Z,7.23
2023-04-15T00:43:16.853Z,6.90
2023-04-15T00:45:47.297Z,6.90
2023-04-15T00:48:16.499Z,5.80
2023-04-15T00:50:44.721Z,6.57
2023-04-15T00:53:12.777Z,6.00
2023-04-15T00:55:41.579Z,5.57
2023-04-15T00:58:10.038Z,6.20
2023-04-15T01:00:38.882Z,5.93
2023-04-15T01:03:07.529Z,5.47
2023-04-15T01:05:36.524Z,5.83
2023-04-15T01:08:05.274Z,6.40
2023-04-15T01:10:34.466Z,6.30
2023-04-15T01:13:03.994Z,6.03
2023-04-15T01:15:32.772Z,6.13
2023-04-15T01:18:02.016Z,5.57
2023-04-15T01:20:31.480Z,6.07
2023-04-15T01:23:01.025Z,5.50
2023-04-15T01:25:34.892Z,6.50
2023-04-15T01:28:03.847Z,5.57
2023-04-15T01:30:36.285Z,5.60
2023-04-15T01:33:04.851Z,6.37
2023-04-15T01:35:33.365Z,5.80
2023-04-15T01:38:10.536Z,6.50
2023-04-15T01:40:39.498Z,6.33
2023-04-15T01:43:08.308Z,6.47
2023-04-15T01:45:37.358Z,6.73
2023-04-15T01:48:05.914Z,5.97
2023-04-15T01:50:36.864Z,5.83
2023-04-15T01:53:05.389Z,6.03
2023-04-15T01:55:33.910Z,5.90
2023-04-15T01:58:02.698Z,6.33
2023-04-15T02:00:32.830Z,6.03
2023-04-15T02:03:01.537Z,6.50
2023-04-15T02:05:30.652Z,6.03
2023-04-15T02:07:59.474Z,8.00
2023-04-15T02:10:28.502Z,6.67
2023-04-15T02:12:57.526Z,6.60
2023-04-15T02:15:26.034Z,5.60
2023-04-15T02:17:55.628Z,6.53
2023-04-15T02:20:24.454Z,6.23
2023-04-15T02:22:53.075Z,6.27
2023-04-15T02:25:21.705Z,5.93
2023-04-15T02:27:50.803Z,5.13
2023-04-15T02:30:19.654Z,5.37
2023-04-15T02:32:48.554Z,6.10
2023-04-15T02:35:19.238Z,5.60
2023-04-15T02:37:47.868Z,5.90
2023-04-15T02:40:16.446Z,5.27
2023-04-15T02:42:45.602Z,6.20
2023-04-15T02:45:14.224Z,5.03
2023-04-15T02:47:43.379Z,5.07
2023-04-15T02:50:15.192Z,5.13
2023-04-15T02:52:44.863Z,4.93
2023-04-15T02:55:13.639Z,4.20
2023-04-15T02:57:42.125Z,4.90
2023-04-15T03:00:12.095Z,5.40
2023-04-15T03:02:42.274Z,5.77
2023-04-15T03:05:16.082Z,5.83
2023-04-15T03:07:44.771Z,5.33
2023-04-15T03:10:13.290Z,5.83
2023-04-15T03:12:41.902Z,5.67
2023-04-15T03:15:11.099Z,5.90
2023-04-15T03:17:40.121Z,5.70
2023-04-15T03:20:09.666Z,6.17
2023-04-15T03:22:38.357Z,6.47
2023-04-15T03:25:07.724Z,7.50
2023-04-15T03:27:36.295Z,8.70
2023-04-15T03:30:04.981Z,8.00
2023-04-15T03:32:33.736Z,8.43
2023-04-15T03:35:02.439Z,8.03
2023-04-15T03:37:30.996Z,7.40
2023-04-15T03:39:59.596Z,7.83
2023-04-15T03:42:28.190Z,7.60
2023-04-15T03:44:56.995Z,8.33
2023-04-15T03:47:25.975Z,8.00
2023-04-15T03:49:54.475Z,7.87
2023-04-15T03:52:23.006Z,8.13
2023-04-15T03:54:51.565Z,6.87
2023-04-15T03:57:20.009Z,7.17
2023-04-15T03:59:48.549Z,6.63
2023-04-15T04:02:17.480Z,6.63
2023-04-15T04:04:46.495Z,6.93
2023-04-15T04:07:18.607Z,5.90
2023-04-15T04:09:47.520Z,6.47
2023-04-15T04:12:21.054Z,5.90
2023-04-15T04:14:49.467Z,5.87
2023-04-15T04:17:18.038Z,6.07
2023-04-15T04:19:46.542Z,6.47
2023-04-15T04:22:15.000Z,6.97
2023-04-15T04:24:43.457Z,6.60
2023-04-15T04:27:11.960Z,6.43
2023-04-15T04:29:40.095Z,6.03
2023-04-15T04:32:08.774Z,6.50
2023-04-15T04:34:38.965Z,6.80
2023-04-15T04:37:07.412Z,6.43
2023-04-15T04:39:36.204Z,6.20
2023-04-15T04:42:04.819Z,7.17
2023-04-15T04:44:33.478Z,6.27
2023-04-15T04:47:01.903Z,7.30
2023-04-15T04:49:30.461Z,6.67
2023-04-15T04:51:59.187Z,7.23
2023-04-15T04:54:27.838Z,7.57
2023-04-15T04:56:57.836Z,6.87
2023-04-15T04:59:26.482Z,6.43
2023-04-15T05:01:54.704Z,6.90
2023-04-15T05:04:23.522Z,6.10
2023-04-15T05:06:52.009Z,6.90
2023-04-15T05:09:20.583Z,6.77
2023-04-15T05:11:49.163Z,6.53
2023-04-15T05:14:17.612Z,6.57
2023-04-15T05:16:46.179Z,6.63
2023-04-15T05:19:14.805Z,6.03
2023-04-15T05:21:43.629Z,6.67
2023-04-15T05:24:12.236Z,7.13
2023-04-15T05:26:42.436Z,6.90
2023-04-15T05:29:11.351Z,6.47
2023-04-15T05:31:40.381Z,7.17
2023-04-15T05:34:09.138Z,7.93
2023-04-15T05:36:37.720Z,7.80
2023-04-15T05:39:06.170Z,7.70
2023-04-15T05:41:34.701Z,7.50
2023-04-15T05:44:03.216Z,9.03
2023-04-15T05:46:31.782Z,8.40
2023-04-15T05:49:00.576Z,9.60
2023-04-15T05:51:29.467Z,8.50
2023-04-15T05:53:58.078Z,8.47
2023-04-15T05:56:27.281Z,8.93
2023-04-15T05:58:56.570Z,8.43
2023-04-15T06:01:25.476Z,8.37
2023-04-15T06:03:54.606Z,8.63
2023-04-15T06:06:23.597Z,8.00
2023-04-15T06:08:52.308Z,8.77
2023-04-15T06:11:22.137Z,7.23
2023-04-15T06:13:50.357Z,7.37
2023-04-15T06:16:18.908Z,7.00
2023-04-15T06:18:47.088Z,7.17
2023-04-15T06:21:16.115Z,7.63
2023-04-15T06:23:44.696Z,7.20
2023-04-15T06:26:13.394Z,8.80
2023-04-15T06:28:41.905Z,8.20
2023-04-15T06:31:10.058Z,7.43
2023-04-15T06:33:39.624Z,8.00
2023-04-15T06:36:08.383Z,7.30
2023-04-15T06:38:36.932Z,7.77
2023-04-15T06:41:06.238Z,7.17
2023-04-15T06:43:34.848Z,8.00
2023-04-15T06:46:03.714Z,8.07
2023-04-15T06:48:32.248Z,8.33
2023-04-15T06:51:00.980Z,8.50
2023-04-15T06:53:29.463Z,7.93
2023-04-15T06:55:57.954Z,7.63
2023-04-15T06:58:26.620Z,7.17
2023-04-15T07:00:55.840Z,8.47
2023-04-15T07:03:24.830Z,7.90
2023-04-15T07:05:53.607Z,7.83
2023-04-15T07:08:22.310Z,7.17
2023-04-15T07:10:50.381Z,7.37
2023-04-15T07:13:18.907Z,7.10
2023-04-15T07:15:47.428Z,7.47
2023-04-15T07:18:16.058Z,6.77
2023-04-15T07:20:45.027Z,6.70
2023-04-15T07:23:13.537Z,7.80
2023-04-15T07:25:42.077Z,6.90
2023-04-15T07:28:10.207Z,7.73
2023-04-15T07:30:38.981Z,7.33
2023-04-15T07:33:08.055Z,7.33
2023-04-15T07:35:36.556Z,8.17
2023-04-15T07:38:05.074Z,8.90
2023-04-15T07:40:34.275Z,7.70
2023-04-15T07:43:03.637Z,10.90
2023-04-15T07:45:32.548Z,8.93
2023-04-15T07:48:01.858Z,8.57
2023-04-15T07:50:30.434Z,8.53
2023-04-15T07:52:58.935Z,8.87
2023-04-15T07:55:28.326Z,8.43
2023-04-15T07:57:57.434Z,8.37
2023-04-15T08:00:26.900Z,8.67
2023-04-15T08:02:57.502Z,7.93
2023-04-15T08:05:27.143Z,8.30
2023-04-15T08:07:56.605Z,8.00
2023-04-15T08:10:24.692Z,8.43
2023-04-15T08:12:54.413Z,9.13
2023-04-15T08:15:23.686Z,8.33
2023-04-15T08:17:52.270Z,8.17
2023-04-15T08:20:21.382Z,8.73
2023-04-15T08:22:52.122Z,8.20
2023-04-15T08:25:21.326Z,8.00
2023-04-15T08:27:49.835Z,8.80
2023-04-15T08:30:18.584Z,8.43
2023-04-15T08:32:51.576Z,9.17
2023-04-15T08:35:20.309Z,8.83
2023-04-15T08:37:48.805Z,9.00
2023-04-15T08:40:17.675Z,9.33
2023-04-15T08:42:50.864Z,11.10
2023-04-15T08:45:20.294Z,10.13
2023-04-15T08:47:53.791Z,11.33
2023-04-15T08:50:23.088Z,10.83
2023-04-15T08:52:51.791Z,11.80
2023-04-15T08:55:20.692Z,10.83
2023-04-15T08:57:49.437Z,10.77
2023-04-15T09:00:18.340Z,11.63
2023-04-15T09:02:47.100Z,11.07
2023-04-15T09:05:15.321Z,12.97
2023-04-15T09:07:43.564Z,12.17
2023-04-15T09:10:12.642Z,12.67
2023-04-15T09:12:41.530Z,12.13
2023-04-15T09:15:13.286Z,13.67
2023-04-15T09:17:45.713Z,13.37
2023-04-15T09:20:18.748Z,13.60
2023-04-15T09:22:49.775Z,14.20
2023-04-15T09:25:24.708Z,14.67
2023-04-15T09:27:55.054Z,14.00
2023-04-15T09:30:23.640Z,14.73
2023-04-15T09:32:56.759Z,14.57
2023-04-15T09:35:26.380Z,15.73
2023-04-15T09:37:56.143Z,16.40
2023-04-15T09:40:33.684Z,14.63
2023-04-15T09:43:03.826Z,16.77
2023-04-15T09:45:32.861Z,15.90
2023-04-15T09:48:28.203Z,15.93
2023-04-15T09:51:00.572Z,15.60
2023-04-15T09:53:31.650Z,16.83
2023-04-15T09:56:02.454Z,16.43
2023-04-15T09:58:33.836Z,17.40
2023-04-15T10:01:07.826Z,17.10
2023-04-15T10:03:37.785Z,17.80
2023-04-15T10:06:06.921Z,18.47
2023-04-15T10:08:36.385Z,18.37
2023-04-15T10:11:05.292Z,18.43
2023-04-15T10:13:36.355Z,19.43
2023-04-15T10:16:24.639Z,20.33
2023-04-15T10:19:03.087Z,22.13
2023-04-15T10:21:32.264Z,21.50
2023-04-15T10:24:01.966Z,21.57
2023-04-15T10:26:31.076Z,20.27
2023-04-15T10:29:01.300Z,22.63
2023-04-15T10:31:30.825Z,22.10
2023-04-15T10:34:04.185Z,19.50
2023-04-15T10:36:32.804Z,20.63
2023-04-15T10:39:01.450Z,20.43
2023-04-15T10:41:31.403Z,20.80
2023-04-15T10:44:06.090Z,19.73
2023-04-15T10:46:40.203Z,20.90
2023-04-15T10:49:14.362Z,21.73
2023-04-15T10:51:48.729Z,21.23
2023-04-15T10:54:27.499Z,20.83
2023-04-15T10:57:23.985Z,19.83
2023-04-15T11:00:11.551Z,19.63
2023-04-15T11:02:54.530Z,21.93
2023-04-15T11:05:44.316Z,21.67
2023-04-15T11:08:14.261Z,20.80
2023-04-15T11:10:55.542Z,21.10
2023-04-15T11:13:27.328Z,21.77
2023-04-15T11:16:00.332Z,21.20
2023-04-15T11:18:31.822Z,21.93
2023-04-15T11:21:06.217Z,21.30
2023-04-15T11:23:47.015Z,21.23
2023-04-15T11:26:15.844Z,20.47
2023-04-15T11:28:46.808Z,20.27
2023-04-15T11:31:18.141Z,21.23
2023-04-15T11:34:07.269Z,21.30
2023-04-15T11:36:35.821Z,18.33
2023-04-15T11:39:04.764Z,20.47
2023-04-15T11:41:32.990Z,20.47
2023-04-15T11:44:01.575Z,19.33
2023-04-15T11:46:33.334Z,19.07
2023-04-15T11:49:02.349Z,19.90
2023-04-15T11:51:35.355Z,18.93
2023-04-15T11:54:04.758Z,18.53
2023-04-15T11:56:33.197Z,19.83
2023-04-15T11:59:02.430Z,18.80
2023-04-15T12:01:41.546Z,16.93
2023-04-15T12:04:15.910Z,17.17
2023-04-15T12:06:44.662Z,16.90
2023-04-15T12:09:15.390Z,17.57
2023-04-15T12:11:43.848Z,17.00
2023-04-15T12:14:18.345Z,18.13
2023-04-15T12:16:51.801Z,18.43
2023-04-15T12:19:26.017Z,16.90
2023-04-15T12:22:00.650Z,17.63
2023-04-15T12:24:29.787Z,17.67
2023-04-15T12:27:03.996Z,17.00
2023-04-15T12:29:33.176Z,14.30
2023-04-15T12:32:14.891Z,15.93
2023-04-15T12:34:52.373Z,14.77
2023-04-15T12:37:21.195Z,15.67
2023-04-15T12:39:51.098Z,13.97
2023-04-15T12:42:19.890Z,12.80
2023-04-15T12:44:48.415Z,14.33
2023-04-15T12:47:17.029Z,14.40
2023-04-15T12:49:45.779Z,13.40
2023-04-15T12:52:15.157Z,13.17
2023-04-15T12:54:43.654Z,13.63
2023-04-15T12:57:12.403Z,13.43
2023-04-15T12:59:40.881Z,12.83
2023-04-15T13:02:09.816Z,13.30
2023-04-15T13:04:38.121Z,12.37
2023-04-15T13:07:06.659Z,10.87
2023-04-15T13:09:35.315Z,10.27
2023-04-15T13:12:05.457Z,11.43
2023-04-15T13:14:33.943Z,11.30
2023-04-15T13:17:04.195Z,11.00
2023-04-15T13:19:32.394Z,11.70
2023-04-15T13:22:00.657Z,11.63
2023-04-15T13:24:29.157Z,10.47
2023-04-15T13:26:59.412Z,9.80
2023-04-15T13:29:27.715Z,9.00
2023-04-15T13:31:56.803Z,9.87
2023-04-15T13:34:25.962Z,8.50
2023-04-15T13:36:54.571Z,9.30
2023-04-15T13:39:23.355Z,9.30
2023-04-15T13:41:51.891Z,8.97
2023-04-15T13:44:21.912Z,9.33
2023-04-15T13:46:51.030Z,9.47
2023-04-15T13:49:19.214Z,9.97
2023-04-15T13:51:47.884Z,9.93
2023-04-15T13:54:16.409Z,9.93
2023-04-15T13:56:44.985Z,10.13
2023-04-15T13:59:14.092Z,10.30
2023-04-15T14:01:43.968Z,9.47
2023-04-15T14:04:12.613Z,11.97
2023-04-15T14:06:41.326Z,10.37
2023-04-15T14:09:09.969Z,10.23
2023-04-15T14:11:40.723Z,9.73
2023-04-15T14:14:09.247Z,10.03
2023-04-15T14:16:37.778Z,9.57
2023-04-15T14:19:06.418Z,9.53
2023-04-15T14:21:35.163Z,10.97
2023-04-15T14:24:03.630Z,10.50
2023-04-15T14:26:32.453Z,9.60
2023-04-15T14:29:01.186Z,9.80
2023-04-15T14:31:29.847Z,9.00
2023-04-15T14:33:58.312Z,9.87
2023-04-15T14:36:27.225Z,9.60
2023-04-15T14:38:55.730Z,8.93
2023-04-15T14:41:24.019Z,9.43
2023-04-15T14:43:53.122Z,9.63
2023-04-15T14:46:21.760Z,9.87
2023-04-15T14:48:50.540Z,9.97
2023-04-15T14:51:19.027Z,9.70
2023-04-15T14:53:47.511Z,9.43
2023-04-15T14:56:16.044Z,9.53
2023-04-15T14:58:44.511Z,9.60
2023-04-15T15:01:13.105Z,9.67
2023-04-15T15:03:41.867Z,8.87
2023-04-15T15:06:10.632Z,8.83
2023-04-15T15:08:38.748Z,9.00
2023-04-15T15:11:07.334Z,8.70
2023-04-15T15:13:36.644Z,9.93
2023-04-15T15:16:07.730Z,8.83
2023-04-15T15:18:36.954Z,9.40
2023-04-15T15:21:05.271Z,8.87
2023-04-15T15:23:33.866Z,8.90
2023-04-15T15:26:02.364Z,8.40
2023-04-15T15:28:31.088Z,9.00
2023-04-15T15:30:59.591Z,8.73
2023-04-15T15:33:30.009Z,10.43
2023-04-15T15:35:59.613Z,9.27
2023-04-15T15:38:28.281Z,9.67
2023-04-15T15:40:56.446Z,9.10
2023-04-15T15:43:24.629Z,9.40
2023-04-15T15:45:55.474Z,9.50
2023-04-15T15:48:25.385Z,9.80
2023-04-15T15:50:54.090Z,9.03
2023-04-15T15:53:24.338Z,9.63
2023-04-15T15:55:53.899Z,9.40
2023-04-15T15:58:22.190Z,8.63
2023-04-15T16:00:50.806Z,9.47
2023-04-15T16:03:19.109Z,9.20
2023-04-15T16:05:47.911Z,9.33
2023-04-15T16:08:16.664Z,9.53
2023-04-15T16:10:45.750Z,9.33
2023-04-15T16:13:14.431Z,9.20
2023-04-15T16:15:43.000Z,9.80
2023-04-15T16:18:11.547Z,10.17
2023-04-15T16:20:40.405Z,10.43
2023-04-15T16:23:18.623Z,9.77
2023-04-15T16:25:47.399Z,9.80
2023-04-15T16:28:25.751Z,11.70
2023-04-15T16:30:55.452Z,10.80
2023-04-15T16:33:24.151Z,9.33
2023-04-15T16:35:53.084Z,9.43
2023-04-15T16:38:21.666Z,13.57
2023-04-15T16:40:49.824Z,11.73
2023-04-15T16:43:18.379Z,9.93
2023-04-15T16:45:50.902Z,11.30
2023-04-15T16:48:20.644Z,10.90
2023-04-15T16:50:49.838Z,9.50
2023-04-15T16:53:18.740Z,10.40
2023-04-15T16:55:47.271Z,9.83
2023-04-15T16:58:15.483Z,11.73
2023-04-15T17:00:44.000Z,11.07
2023-04-15T17:03:12.637Z,10.73
2023-04-15T17:05:42.468Z,12.80
2023-04-15T17:08:11.100Z,12.10
2023-04-15T17:10:41.067Z,12.43
2023-04-15T17:13:09.320Z,11.43
2023-04-15T17:15:38.013Z,11.80
2023-04-15T17:18:06.703Z,10.90
2023-04-15T17:20:35.480Z,10.93
2023-04-15T17:23:05.021Z,10.13
2023-04-15T17:25:33.667Z,9.53
2023-04-15T17:28:02.341Z,13.43
2023-04-15T17:30:30.905Z,12.63
2023-04-15T17:32:59.576Z,12.80
2023-04-15T17:35:28.197Z,11.20
2023-04-15T17:37:56.745Z,10.60
2023-04-15T17:40:25.174Z,9.97
2023-04-15T17:42:53.704Z,9.63
2023-04-15T17:45:25.912Z,10.83
2023-04-15T17:47:54.519Z,11.27
2023-04-15T17:50:23.234Z,12.03
2023-04-15T17:52:51.586Z,11.37
2023-04-15T17:55:20.081Z,10.57
2023-04-15T17:57:48.324Z,11.13
2023-04-15T18:00:17.525Z,11.17
2023-04-15T18:02:46.442Z,11.40
2023-04-15T18:05:15.806Z,10.40
2023-04-15T18:07:44.619Z,11.33
2023-04-15T18:10:13.229Z,10.53
2023-04-15T18:12:41.362Z,11.30
2023-04-15T18:15:10.589Z,11.37
2023-04-15T18:17:39.207Z,11.20
2023-04-15T18:20:08.398Z,11.37
2023-04-15T18:22:36.977Z,12.00
2023-04-15T18:25:06.043Z,12.50
2023-04-15T18:27:35.864Z,12.93
2023-04-15T18:30:04.413Z,11.80
2023-04-15T18:32:32.909Z,11.60
2023-04-15T18:35:01.145Z,12.53
2023-04-15T18:37:30.043Z,12.60
2023-04-15T18:39:58.999Z,13.40
2023-04-15T18:42:27.258Z,12.13
2023-04-15T18:44:56.053Z,12.30
2023-04-15T18:47:26.493Z,12.77
2023-04-15T18:49:55.715Z,12.30
2023-04-15T18:52:24.219Z,11.30
2023-04-15T18:54:52.739Z,12.73
2023-04-15T18:57:24.574Z,14.83
2023-04-15T19:00:00.991Z,12.67
2023-04-15T19:02:29.578Z,12.20
2023-04-15T19:04:58.080Z,12.87
2023-04-15T19:07:26.671Z,13.40
2023-04-15T19:09:55.023Z,13.33
2023-04-15T19:12:23.093Z,12.77
2023-04-15T19:14:51.633Z,12.77
2023-04-15T19:17:19.979Z,12.80
2023-04-15T19:19:50.883Z,12.90
2023-04-15T19:22:19.244Z,13.47
2023-04-15T19:24:48.130Z,13.17
2023-04-15T19:27:16.194Z,13.63
2023-04-15T19:29:44.432Z,12.43
2023-04-15T19:32:14.039Z,12.90
2023-04-15T19:34:43.392Z,13.13
2023-04-15T19:37:12.748Z,13.60
2023-04-15T19:39:40.899Z,13.40
2023-04-15T19:42:09.459Z,12.90
2023-04-15T19:44:42.736Z,12.90
2023-04-15T19:47:11.808Z,12.73
2023-04-15T19:49:40.227Z,13.67
2023-04-15T19:52:08.728Z,14.30
2023-04-15T19:54:37.019Z,15.33
2023-04-15T19:57:05.589Z,14.47
2023-04-15T19:59:34.053Z,14.93
2023-04-15T20:02:02.641Z,14.03
2023-04-15T20:04:31.461Z,13.67
2023-04-15T20:07:00.503Z,13.93
2023-04-15T20:09:29.021Z,15.20
2023-04-15T20:12:45.606Z,16.27
2023-04-15T20:14:46.056Z,15.40
2023-04-15T20:17:15.842Z,17.07
2023-04-15T20:19:44.360Z,15.60
2023-04-15T20:22:12.891Z,17.27
2023-04-15T20:24:41.400Z,16.33
2023-04-15T20:27:09.918Z,16.13
2023-04-15T20:29:38.537Z,16.47
2023-04-15T20:32:07.373Z,15.07
2023-04-15T20:34:35.569Z,15.23
2023-04-15T20:37:04.180Z,15.87
2023-04-15T20:39:32.710Z,15.87
2023-04-15T20:42:01.713Z,15.53
2023-04-15T20:44:30.416Z,15.37
2023-04-15T20:46:58.934Z,17.37
2023-04-15T20:49:27.468Z,16.73
2023-04-15T20:51:55.911Z,16.67
2023-04-15T20:54:25.193Z,16.07
2023-04-15T20:56:53.607Z,16.80
2023-04-15T20:59:22.157Z,15.73
2023-04-15T21:01:51.449Z,15.07
2023-04-15T21:04:19.570Z,16.83
2023-04-15T21:06:48.457Z,17.80
2023-04-15T21:09:16.515Z,16.27
2023-04-15T21:14:22.033Z,17.53
2023-04-15T21:16:50.629Z,16.77
2023-04-15T21:19:18.795Z,16.63
2023-04-15T21:21:46.967Z,17.53
2023-04-15T21:24:15.099Z,17.27
2023-04-15T21:26:44.144Z,17.23
2023-04-15T21:29:12.975Z,16.93
2023-04-15T21:31:41.732Z,16.23
2023-04-15T21:34:10.691Z,17.50
2023-04-15T21:36:39.858Z,16.13
2023-04-15T21:39:08.366Z,16.43
2023-04-15T21:41:37.914Z,16.57
2023-04-15T21:44:06.557Z,17.27
2023-04-15T21:46:36.057Z,17.70
2023-04-15T21:49:04.793Z,16.83
2023-04-15T21:51:33.553Z,17.23
2023-04-15T21:54:02.062Z,18.57
2023-04-15T21:56:30.584Z,18.40
2023-04-15T21:58:59.328Z,18.33
2023-04-15T22:01:28.342Z,17.80
2023-04-15T22:03:56.834Z,18.70
2023-04-15T22:06:25.549Z,19.03
2023-04-15T22:08:57.363Z,18.10
2023-04-15T22:11:28.467Z,18.43
2023-04-15T22:13:58.396Z,18.13
2023-04-15T22:16:27.798Z,20.07
2023-04-15T22:18:58.990Z,18.50
2023-04-15T22:21:27.894Z,19.53
2023-04-15T22:24:38.309Z,18.73
2023-04-15T22:26:44.908Z,18.57
2023-04-15T22:29:13.596Z,17.90
2023-04-15T22:31:42.476Z,18.07
2023-04-15T22:34:11.084Z,17.33
2023-04-15T22:36:39.181Z,17.77
2023-04-15T22:39:07.972Z,17.87
2023-04-15T22:41:36.644Z,17.57
2023-04-15T22:44:04.802Z,18.27
2023-04-15T22:46:33.307Z,17.93
2023-04-15T22:49:01.936Z,18.17
2023-04-15T22:51:30.386Z,18.30
2023-04-15T22:53:59.028Z,17.77
2023-04-15T22:56:27.594Z,18.03
2023-04-15T22:58:56.076Z,17.90
2023-04-15T23:01:24.785Z,17.27
2023-04-15T23:03:55.512Z,18.50
2023-04-15T23:06:27.110Z,18.87
2023-04-15T23:08:56.026Z,17.37
2023-04-15T23:11:24.542Z,19.40
2023-04-15T23:13:53.146Z,18.00
2023-04-15T23:16:21.266Z,19.30
2023-04-15T23:18:49.494Z,19.20
2023-04-15T23:21:18.011Z,17.30
2023-04-15T23:23:46.145Z,19.23
2023-04-15T23:26:14.455Z,18.80
2023-04-15T23:28:43.173Z,18.10
2023-04-15T23:31:11.934Z,19.53
2023-04-15T23:33:40.449Z,18.23
2023-04-15T23:36:08.780Z,18.20
2023-04-15T23:38:37.638Z,19.00
2023-04-15T23:41:06.216Z,20.03
2023-04-15T23:43:34.361Z,19.63
2023-04-15T23:46:02.663Z,18.60
2023-04-15T23:48:31.231Z,18.50
2023-04-15T23:51:00.704Z,16.77
2023-04-15T23:53:30.869Z,18.43
2023-04-15T23:55:59.407Z,17.23
2023-04-15T23:58:27.651Z,17.57
